YBHI

Details ICAO YBHI (BHQ)
Name Broken Hill
Region Australia
Timezone Australia/Broken_Hill (UTC+10.5)
Plans Departing 425
Arriving 476
Stats Elevation 958 ft / 292 m (AMSL)
Location -32.005000° 141.471000°
Runways 2
Magnetic Variation 8.399° E
Sunrise 2021-01-25 19:54:26 UTC / 2021-01-26 06:24:26 Local
Sunset 2021-01-26 09:41:04 UTC / 2021-01-26 20:11:04 Local
Advertisement - Login to hide

Runways

ID Width Length Bearing (true/mag) Surface Threshold Overrun Markings Lighting
05 98 ft / 30 m 8,242 ft / 2,512 m 55.78° / 47.38° ASPHALT 0 ft / 0 m 0 ft / 0 m PREC-APP EDGE THRESHOLD
14 105 ft / 32 m 3,280 ft / 1,000 m 143.11° / 134.71° DIRT 0 ft / 0 m 0 ft / 0 m NONE
23 98 ft / 30 m 8,242 ft / 2,512 m 235.77° / 227.37° ASPHALT 0 ft / 0 m 0 ft / 0 m PREC-APP EDGE THRESHOLD
32 105 ft / 32 m 3,280 ft / 1,000 m 323.11° / 314.71° DIRT 0 ft / 0 m 0 ft / 0 m NONE

Map

Weather


0- 5 10 15 20 25 30 35+ Temperature / °C

Clouds and Precipitation
Forecast for 2021-01-26 06:00 UTC. Updated an hour ago

Ground ~20,000 ft ~40,000 ft Winds

METAR

YBHI 260400Z AUTO 18017KT 9999 // OVC015 23/19 Q1004

TAF

Not found

Frequencies

Unicom 126.70 MHz Broken Hill Unicom
Warning: Do not use this data for real-world aviation or navigation. No guarantee of current accuracy is given.